^^
Lisbon, NH - Weather Station Historical Data
 
Daily Summary for June 13, 2021 Units:  English    Metric   Both
Daily Weekly Monthly Yearly
  Current: High: Low: Average:
Temperature: 68.6 °F 82.1 °F 46 °F 66 °F
Dew Point: 55.7 °F 60 °F 38.5 °F 48.2 °F
Humidity: 63.5% 100% 22.1% 61%
Wind Speed: 0mph 3.6mph 0mph 0.7mph
Wind Gust: 0mph 7mph - -
WindCalm - - SSE
Pressure: 29.76 in 29.87 in 29.75 in -
Precipitation: 0.00 in      
 
 
Tabular Data for June 13, 2021
Time Temperature Dew Point Pressure Wind Wind Speed Wind Gust Humidity Rainfall Rate (Hourly) solar
00:04 55.3 °F 49.5 °F 29.81 in Calm     80.8% 0.00 in 0 W/m2
00:09 55.2 °F 49.5 °F 29.81 in Calm     81% 0.00 in 0 W/m2
00:14 54.9 °F 49.2 °F 29.82 in Calm     81% 0.00 in 0 W/m2
00:19 54.7 °F 49.1 °F 29.82 in Calm     81.1% 0.00 in 0 W/m2
00:24 54.5 °F 49.1 °F 29.82 in Calm     82% 0.00 in 0 W/m2
00:29 54.4 °F 49.1 °F 29.82 in Calm     82.3% 0.00 in 0 W/m2
00:34 54.2 °F 49.1 °F 29.82 in Calm     83% 0.00 in 0 W/m2
00:39 54 °F 49 °F 29.82 in Calm     83% 0.00 in 0 W/m2
00:44 53.9 °F 49 °F 29.82 in Calm     83.4% 0.00 in 0 W/m2
00:49 53.7 °F 49 °F 29.82 in Calm     84% 0.00 in 0 W/m2
00:54 53.5 °F 48.8 °F 29.82 in Calm     84% 0.00 in 0 W/m2
00:59 53.4 °F 49 °F 29.82 in Calm     85% 0.00 in 0 W/m2
01:04 53.2 °F 48.8 °F 29.82 in Calm     85% 0.00 in 0 W/m2
01:09 53.1 °F 48.7 °F 29.82 in Calm     85.1% 0.00 in 0 W/m2
01:14 52.8 °F 48.8 °F 29.82 in Calm     86% 0.00 in 0 W/m2
01:19 52.6 °F 48.5 °F 29.82 in Calm     86% 0.00 in 0 W/m2
01:24 52.4 °F 48.3 °F 29.82 in Calm     86.1% 0.00 in 0 W/m2
01:29 52.1 °F 48.4 °F 29.82 in Calm     87% 0.00 in 0 W/m2
01:34 51.9 °F 48.3 °F 29.82 in Calm     87.3% 0.00 in 0 W/m2
01:39 51.8 °F 48.3 °F 29.82 in Calm     88% 0.00 in 0 W/m2
01:44 51.6 °F 48.4 °F 29.82 in Calm     88.8% 0.00 in 0 W/m2
01:49 51.4 °F 48.3 °F 29.81 in Calm     89.3% 0.00 in 0 W/m2
01:54 51.3 °F 48.4 °F 29.81 in Calm     90% 0.00 in 0 W/m2
01:59 51.1 °F 48.5 °F 29.81 in Calm     90.8% 0.00 in 0 W/m2
02:04 50.9 °F 48.4 °F 29.81 in Calm     91% 0.00 in 0 W/m2
02:09 50.7 °F 48.1 °F 29.81 in Calm     91% 0.00 in 0 W/m2
02:14 50.4 °F 47.9 °F 29.82 in Calm     91% 0.00 in 0 W/m2
02:19 50.3 °F 47.8 °F 29.82 in Calm     91% 0.00 in 0 W/m2
02:24 50.1 °F 47.9 °F 29.82 in Calm   1 mph 92% 0.00 in 0 W/m2
02:29 50 °F 48.1 °F 29.82 in Calm     93% 0.00 in 0 W/m2
02:34 49.9 °F 47.9 °F 29.82 in Calm     93% 0.00 in 0 W/m2
02:39 49.7 °F 47.8 °F 29.82 in Calm     93% 0.00 in 0 W/m2
02:44 49.6 °F 47.8 °F 29.82 in Calm     93.6% 0.00 in 0 W/m2
02:49 49.4 °F 47.8 °F 29.82 in Calm     94% 0.00 in 0 W/m2
02:54 49.2 °F 47.5 °F 29.82 in Calm     94% 0.00 in 0 W/m2
02:59 49 °F 47.3 °F 29.82 in Calm     94% 0.00 in 0 W/m2
03:04 48.7 °F 47.1 °F 29.82 in Calm     94% 0.00 in 0 W/m2
03:09 48.5 °F 46.8 °F 29.82 in Calm     94% 0.00 in 0 W/m2
03:14 48.3 °F 46.6 °F 29.82 in Calm     94% 0.00 in 0 W/m2
03:19 48.2 °F 46.8 °F 29.82 in Calm     94.9% 0.00 in 0 W/m2
03:24 48 °F 46.6 °F 29.82 in Calm     95% 0.00 in 0 W/m2
03:29 48 °F 46.6 °F 29.83 in Calm     95% 0.00 in 0 W/m2
03:34 47.9 °F 46.6 °F 29.83 in Calm     95% 0.00 in 0 W/m2
03:39 47.8 °F 46.6 °F 29.83 in Calm     95.6% 0.00 in 0 W/m2
03:44 47.7 °F 46.6 °F 29.83 in Calm     96% 0.00 in 0 W/m2
03:49 47.6 °F 46.5 °F 29.82 in Calm     96% 0.00 in 0 W/m2
03:54 47.5 °F 46.4 °F 29.82 in Calm     96% 0.00 in 0 W/m2
03:59 47.4 °F 46.3 °F 29.82 in Calm     96% 0.00 in 0 W/m2
04:04 47.3 °F 46.3 °F 29.82 in Calm     96.1% 0.00 in 0 W/m2
04:09 47.2 °F 46.4 °F 29.82 in Calm     97% 0.00 in 0 W/m2
04:14 47.1 °F 46.3 °F 29.83 in Calm     97% 0.00 in 0 W/m2
04:19 47.1 °F 46.3 °F 29.83 in Calm     97% 0.00 in 0 W/m2
04:24 47 °F 46.2 °F 29.83 in Calm     97% 0.00 in 0 W/m2
04:29 46.9 °F 46.1 °F 29.83 in Calm     97% 0.00 in 0 W/m2
04:34 46.8 °F 46 °F 29.83 in Calm     97% 0.00 in 0 W/m2
04:39 46.7 °F 45.9 °F 29.83 in Calm     97.1% 0.00 in 0 W/m2
04:44 46.6 °F 46 °F 29.83 in Calm     97.8% 0.00 in 0 W/m2
04:49 46.5 °F 45.9 °F 29.83 in Calm     98% 0.00 in 0 W/m2
04:54 46.4 °F 45.9 °F 29.83 in Calm     98% 0.00 in 5 W/m2
04:59 46.2 °F 45.7 °F 29.84 in Calm     98% 0.00 in 7 W/m2
05:04 46.2 °F 45.7 °F 29.84 in Calm     98% 0.00 in 7 W/m2
05:09 46.2 °F 45.7 °F 29.84 in Calm     98% 0.00 in 7 W/m2
05:14 46.1 °F 45.6 °F 29.84 in Calm     98% 0.00 in 11 W/m2
05:19 46.1 °F 45.6 °F 29.84 in Calm     98% 0.00 in 14 W/m2
05:24 46 °F 45.6 °F 29.84 in Calm   1 mph 98.4% 0.00 in 19 W/m2
05:29 46 °F 45.7 °F 29.84 in Calm   1 mph 99% 0.00 in 28 W/m2
05:34 46 °F 45.7 °F 29.84 in Calm     99% 0.00 in 26 W/m2
05:39 46 °F 45.7 °F 29.84 in Calm     99% 0.00 in 32 W/m2
05:44 46 °F 45.8 °F 29.85 in Calm     99% 0.00 in 32 W/m2
05:49 46.1 °F 45.8 °F 29.85 in Calm     99% 0.00 in 62 W/m2
05:54 46.2 °F 45.9 °F 29.85 in NE 0.2 mph 2 mph 99% 0.00 in 62 W/m2
05:59 46.4 °F 46.3 °F 29.85 in NE 0.2 mph 2 mph 99.5% 0.00 in 62 W/m2
06:04 46.6 °F 46.6 °F 29.85 in NE 0.8 mph 2 mph 100% 0.00 in 116 W/m2
06:09 46.9 °F 46.9 °F 29.85 in NE 1.5 mph 3 mph 100% 0.00 in 160 W/m2
06:14 47.4 °F 47.4 °F 29.86 in NE 1.6 mph 2 mph 100% 0.00 in 172 W/m2
06:19 47.8 °F 47.6 °F 29.86 in NE 1.6 mph 2 mph 99.4% 0.00 in 165 W/m2
06:24 48.1 °F 47.8 °F 29.86 in ENE 1.9 mph 3 mph 99% 0.00 in 155 W/m2
06:29 48.2 °F 47.7 °F 29.86 in ENE 2.3 mph 3 mph 98.2% 0.00 in 134 W/m2
06:34 48.3 °F 47.8 °F 29.86 in ENE 1.6 mph 3 mph 98% 0.00 in 201 W/m2
06:39 48.7 °F 48.1 °F 29.86 in ENE 1.8 mph 3 mph 98% 0.00 in 223 W/m2
06:44 48.9 °F 48.1 °F 29.86 in ENE 1.4 mph 3 mph 97% 0.00 in 267 W/m2
06:49 49.5 °F 48.6 °F 29.86 in ENE 1.3 mph 3 mph 96.8% 0.00 in 269 W/m2
06:54 50.2 °F 49 °F 29.86 in NE 1.4 mph 3 mph 95.7% 0.00 in 294 W/m2
06:59 50.9 °F 49.3 °F 29.86 in NE 1.5 mph 3 mph 94.1% 0.00 in 310 W/m2
07:04 51.7 °F 49.3 °F 29.86 in ENE 1.8 mph 4 mph 91.5% 0.00 in 326 W/m2
07:09 52.3 °F 49.2 °F 29.86 in ENE 1.5 mph 5 mph 89.1% 0.00 in 343 W/m2
07:14 52.9 °F 49.2 °F 29.87 in ENE 2.1 mph 5 mph 87.3% 0.00 in 359 W/m2
07:19 53.5 °F 49.4 °F 29.87 in ENE 2.6 mph 5 mph 85.9% 0.00 in 382 W/m2
07:24 54.1 °F 49.3 °F 29.87 in ENE 2.1 mph 5 mph 83.8% 0.00 in 375 W/m2
07:29 54.3 °F 49.2 °F 29.87 in NE 1.2 mph 3 mph 82.8% 0.00 in 436 W/m2
07:34 54.9 °F 49.5 °F 29.87 in NE 1 mph 2 mph 82.2% 0.00 in 456 W/m2
07:39 55.8 °F 50.2 °F 29.87 in NE 0.8 mph 2 mph 81.3% 0.00 in 475 W/m2
07:44 56.8 °F 50.3 °F 29.87 in ENE 0.7 mph 2 mph 78.9% 0.00 in 470 W/m2
07:49 57.1 °F 50.3 °F 29.86 in ENE 1.4 mph 2 mph 77.9% 0.00 in 463 W/m2
07:54 57.8 °F 50.6 °F 29.86 in ENE 1.3 mph 2 mph 76.8% 0.00 in 438 W/m2
07:59 58.6 °F 50.5 °F 29.86 in ENE 2.2 mph 4 mph 74.3% 0.00 in 510 W/m2
08:04 59.1 °F 50.3 °F 29.86 in ENE 2.1 mph 4 mph 72.5% 0.00 in 535 W/m2
08:09 59.7 °F 50.6 °F 29.86 in ENE 2 mph 4 mph 71.9% 0.00 in 554 W/m2
08:14 60.4 °F 51 °F 29.86 in ENE 1.9 mph 4 mph 71% 0.00 in 556 W/m2
08:19 60.7 °F 51.3 °F 29.86 in ENE 1.4 mph 3 mph 71% 0.00 in 596 W/m2
08:24 61.1 °F 51.4 °F 29.86 in ENE 1.4 mph 3 mph 70.4% 0.00 in 611 W/m2
08:29 62 °F 51.5 °F 29.86 in NE 1.1 mph 2 mph 68.3% 0.00 in 611 W/m2
08:34 63 °F 51.9 °F 29.86 in ENE 0.5 mph 2 mph 67% 0.00 in 607 W/m2
08:39 63.6 °F 52.4 °F 29.86 in ESE 0.4 mph 2 mph 66.9% 0.00 in 633 W/m2
08:44 64.2 °F 52.6 °F 29.86 in ESE 0.5 mph 2 mph 66.2% 0.00 in 651 W/m2
08:49 64.7 °F 52.9 °F 29.85 in SSE 1.5 mph 3 mph 65.7% 0.00 in 663 W/m2
08:54 64.7 °F 53.1 °F 29.85 in SSW 0.7 mph 3 mph 66% 0.00 in 676 W/m2
08:59 65.2 °F 53 °F 29.85 in South 0.9 mph 2 mph 64.7% 0.00 in 686 W/m2
09:04 65.8 °F 53.1 °F 29.85 in SSW 1.5 mph 3 mph 63.5% 0.00 in 697 W/m2
09:09 66.3 °F 53.6 °F 29.85 in South 1.5 mph 3 mph 63.7% 0.00 in 720 W/m2
09:14 66.7 °F 54.1 °F 29.85 in SSE 1.1 mph 3 mph 64% 0.00 in 734 W/m2
09:19 67.5 °F 54.7 °F 29.85 in SSE 1 mph 5 mph 63.4% 0.00 in 746 W/m2
09:24 68.2 °F 54.7 °F 29.85 in South 0.9 mph 5 mph 62% 0.00 in 760 W/m2
09:29 68.8 °F 54.5 °F 29.85 in South 2 mph 5 mph 60.3% 0.00 in 771 W/m2
09:34 68.9 °F 54.5 °F 29.85 in SSW 2.4 mph 6 mph 60.3% 0.00 in 783 W/m2
09:39 68.9 °F 54.5 °F 29.85 in SSW 2.4 mph 5 mph 60% 0.00 in 795 W/m2
09:44 69.2 °F 54.4 °F 29.85 in SSW 3.4 mph 7 mph 59.2% 0.00 in 804 W/m2
09:49 69.2 °F 54.2 °F 29.84 in South 2.1 mph 7 mph 58.8% 0.00 in 816 W/m2
09:54 69.4 °F 54.6 °F 29.84 in SE 1.7 mph 5 mph 59.4% 0.00 in 829 W/m2
09:59 69.9 °F 54.2 °F 29.84 in SSW 1.8 mph 4 mph 57.4% 0.00 in 841 W/m2
10:04 70.5 °F 54.7 °F 29.84 in South 0.9 mph 4 mph 57.2% 0.00 in 852 W/m2
10:09 71.5 °F 54.2 °F 29.84 in SSW 2.4 mph 6 mph 54.4% 0.00 in 862 W/m2
10:14 71.9 °F 53.9 °F 29.84 in SSW 2.1 mph 6 mph 53% 0.00 in 869 W/m2
10:19 72.2 °F 53.8 °F 29.84 in SSW 2.4 mph 5 mph 52.3% 0.00 in 880 W/m2
10:24 72.8 °F 53.6 °F 29.84 in SSW 2.8 mph 7 mph 50.9% 0.00 in 892 W/m2
10:29 73.2 °F 53.1 °F 29.84 in SSW 2.7 mph 6 mph 49.3% 0.00 in 901 W/m2
10:34 73.6 °F 53.7 °F 29.83 in SW 3.5 mph 7 mph 49.8% 0.00 in 911 W/m2
10:39 74.1 °F 53.4 °F 29.83 in SSE 1.6 mph 5 mph 48.4% 0.00 in 924 W/m2
10:44 74.9 °F 53.6 °F 29.83 in East 1.8 mph 4 mph 47.5% 0.00 in 938 W/m2
10:49 75.3 °F 52.9 °F 29.82 in East 1.4 mph 5 mph 45.7% 0.00 in 943 W/m2
10:54 75.4 °F 53.1 °F 29.82 in ESE 1.4 mph 5 mph 45.9% 0.00 in 950 W/m2
10:59 75.8 °F 53.9 °F 29.82 in ESE 0.9 mph 3 mph 46.4% 0.00 in 957 W/m2
11:04 76.4 °F 53.4 °F 29.82 in ENE 1 mph 3 mph 44.9% 0.00 in 957 W/m2
11:09 77 °F 53.6 °F 29.82 in SSW 0.5 mph 3 mph 44.2% 0.00 in 971 W/m2
11:14 77.9 °F 52.8 °F 29.82 in ENE 1.4 mph 4 mph 41.7% 0.00 in 973 W/m2
11:19 78.1 °F 52 °F 29.82 in SE 1.6 mph 4 mph 40.3% 0.00 in 978 W/m2
11:24 77.6 °F 51.3 °F 29.82 in SSE 1.7 mph 5 mph 39.9% 0.00 in 994 W/m2
11:29 77.4 °F 51.5 °F 29.82 in South 2.2 mph 6 mph 40.4% 0.00 in 1022 W/m2
11:34 77.6 °F 50.4 °F 29.81 in ENE 1.8 mph 5 mph 38.7% 0.00 in 1033 W/m2
11:39 78.8 °F 48.5 °F 29.81 in ENE 1.6 mph 5 mph 34.5% 0.00 in 1031 W/m2
11:44 79.8 °F 51.6 °F 29.81 in ESE 1.8 mph 5 mph 37.6% 0.00 in 1017 W/m2
11:49 79.9 °F 46.5 °F 29.81 in ENE 2.2 mph 5 mph 31% 0.00 in 1019 W/m2
11:54 79.8 °F 44.4 °F 29.81 in SE 1.2 mph 5 mph 28.6% 0.00 in 1024 W/m2
11:59 80 °F 44.7 °F 29.81 in SSW 1.2 mph 5 mph 28.8% 0.00 in 1022 W/m2
12:04 80.5 °F 45.6 °F 29.81 in SW 0.3 mph 5 mph 29.3% 0.00 in 1026 W/m2
12:09 81.1 °F 44.7 °F 29.81 in ESE 0.4 mph 2 mph 27.9% 0.00 in 1019 W/m2
12:14 81.6 °F 44.3 °F 29.81 in NW 0.8 mph 2 mph 26.9% 0.00 in 1021 W/m2
12:19 81.8 °F 45.5 °F 29.81 in NW 0.7 mph 4 mph 27.9% 0.00 in 1043 W/m2
12:24 81.7 °F 44.9 °F 29.81 in NW 0.6 mph 2 mph 27.4% 0.00 in 1045 W/m2
12:29 81.5 °F 44 °F 29.81 in North 0.9 mph 3 mph 26.6% 0.00 in 994 W/m2
12:34 81.1 °F 44.6 °F 29.81 in NE 1.8 mph 5 mph 27.7% 0.00 in 735 W/m2
12:39 80.2 °F 43 °F 29.81 in ENE 1.8 mph 5 mph 26.7% 0.00 in 1047 W/m2
12:44 79.7 °F 44.1 °F 29.81 in ESE 0.8 mph 3 mph 28.4% 0.00 in 1047 W/m2
12:49 80.3 °F 44.2 °F 29.80 in ESE 0.6 mph 3 mph 28% 0.00 in 1035 W/m2
12:54 80.9 °F 45.2 °F 29.80 in North 0.9 mph 2 mph 28.5% 0.00 in 1028 W/m2
12:59 81.1 °F 45.8 °F 29.80 in SW 0.6 mph 2 mph 28.9% 0.00 in 1024 W/m2
13:04 81 °F 44.4 °F 29.80 in South 0.9 mph 3 mph 27.6% 0.00 in 1026 W/m2
13:09 80.9 °F 43.7 °F 29.80 in SSW 2.5 mph 5 mph 26.8% 0.00 in 1026 W/m2
13:14 80.6 °F 43.4 °F 29.80 in SSW 2.1 mph 7 mph 26.8% 0.00 in 1008 W/m2
13:19 80.7 °F 42.4 °F 29.79 in South 2.4 mph 7 mph 25.8% 0.00 in 1042 W/m2
13:24 81 °F 44.4 °F 29.79 in NNE 1.1 mph 7 mph 27.5% 0.00 in 1080 W/m2
13:29 81.5 °F 44.2 °F 29.79 in SSW 0.5 mph 3 mph 26.9% 0.00 in 1126 W/m2
13:34 82 °F 43.8 °F 29.79 in NE 1 mph 2 mph 26% 0.00 in 1131 W/m2
13:39 82 °F 42.7 °F 29.79 in WSW 0.7 mph 2 mph 24.9% 0.00 in 1091 W/m2
13:44 81.6 °F 42.3 °F 29.79 in East 2 mph 5 mph 24.9% 0.00 in 1066 W/m2
13:49 81.1 °F 42.9 °F 29.79 in ENE 3.6 mph 7 mph 25.9% 0.00 in 1091 W/m2
13:54 81.4 °F 42.8 °F 29.79 in South 1.4 mph 7 mph 25.6% 0.00 in 1087 W/m2
13:59 81.7 °F 42.9 °F 29.79 in SW 2.2 mph 6 mph 25.3% 0.00 in 1070 W/m2
14:04 82.1 °F 40.8 °F 29.79 in SSW 1.7 mph 6 mph 23.2% 0.00 in 1012 W/m2
14:09 81.8 °F 39.8 °F 29.79 in SSE 3.3 mph 6 mph 22.4% 0.00 in 968 W/m2
14:14 81.7 °F 41.3 °F 29.79 in East 1.2 mph 6 mph 23.9% 0.00 in 950 W/m2
14:19 81.8 °F 42 °F 29.78 in South 1.1 mph 3 mph 24.5% 0.00 in 938 W/m2
14:24 81.8 °F 43.7 °F 29.78 in SW 0.8 mph 3 mph 26.1% 0.00 in 929 W/m2
14:29 81.7 °F 42.7 °F 29.78 in South 1.4 mph 6 mph 25.2% 0.00 in 913 W/m2
14:34 81.6 °F 41.5 °F 29.78 in West 0.8 mph 3 mph 24.2% 0.00 in 150 W/m2
14:39 81.4 °F 41.1 °F 29.78 in NNE 1.5 mph 5 mph 23.9% 0.00 in 174 W/m2
14:44 81.4 °F 40 °F 29.78 in West 0.9 mph 3 mph 22.9% 0.00 in 190 W/m2
14:49 81.4 °F 43.2 °F 29.78 in WSW 0.8 mph 2 mph 26% 0.00 in 190 W/m2
14:54 81.3 °F 40.3 °F 29.78 in SW 0.9 mph 3 mph 23.3% 0.00 in 121 W/m2
14:59 81.2 °F 39.2 °F 29.78 in WNW 0.6 mph 3 mph 22.4% 0.00 in 132 W/m2
15:04 81 °F 38.9 °F 29.78 in SSW 1.1 mph 3 mph 22.3% 0.00 in 218 W/m2
15:09 80.9 °F 38.6 °F 29.78 in East 1.1 mph 3 mph 22.1% 0.00 in 239 W/m2
15:14 81 °F 41 °F 29.78 in East 0.4 mph 3 mph 24.1% 0.00 in 239 W/m2
15:19 81.2 °F 40.8 °F 29.78 in North 1.1 mph 4 mph 23.9% 0.00 in 139 W/m2
15:24 81.1 °F 40.2 °F 29.78 in West 0.5 mph 4 mph 23.3% 0.00 in 139 W/m2
15:29 81 °F 39.3 °F 29.78 in NW 0.7 mph 3 mph 22.6% 0.00 in 93 W/m2
15:34 81.1 °F 41.2 °F 29.78 in NW 0.1 mph 2 mph 24.3% 0.00 in 91 W/m2
15:39 80.9 °F 41.2 °F 29.78 in SSW 2.1 mph 6 mph 24.5% 0.00 in 114 W/m2
15:44 80.6 °F 42 °F 29.78 in SSW 0.7 mph 6 mph 25.4% 0.00 in 118 W/m2
15:49 80.2 °F 38.5 °F 29.77 in South 1.9 mph 5 mph 22.5% 0.00 in 116 W/m2
15:54 80.1 °F 40.1 °F 29.77 in South 1 mph 5 mph 24.1% 0.00 in 102 W/m2
15:59 80.2 °F 42.5 °F 29.77 in NW 0.3 mph 2 mph 26.2% 0.00 in 116 W/m2
16:04 80.3 °F 41.7 °F 29.77 in NNW 0.2 mph 2 mph 25.4% 0.00 in 158 W/m2
16:09 80.5 °F 41.3 °F 29.77 in NNW 0.5 mph 2 mph 24.8% 0.00 in 181 W/m2
16:14 80.5 °F 43.3 °F 29.77 in WSW 0.3 mph 2 mph 26.9% 0.00 in 116 W/m2
16:19 80.3 °F 43.3 °F 29.77 in Calm   2 mph 27% 0.00 in 125 W/m2
16:24 80.3 °F 43.9 °F 29.77 in SSW 0.1 mph 1 mph 27.7% 0.00 in 176 W/m2
16:29 80.3 °F 46.6 °F 29.77 in SW 0.3 mph 2 mph 30.7% 0.00 in 225 W/m2
16:34 80.2 °F 47.3 °F 29.77 in SW 0.4 mph 2 mph 31.6% 0.00 in 216 W/m2
16:39 80.2 °F 44.8 °F 29.77 in Calm   1 mph 28.7% 0.00 in 195 W/m2
16:44 80.3 °F 43.3 °F 29.77 in Calm   1 mph 27% 0.00 in 153 W/m2
16:49 80.3 °F 40.8 °F 29.77 in SSW 0.4 mph 2 mph 24.5% 0.00 in 127 W/m2
16:54 80.3 °F 40.3 °F 29.77 in South 0.9 mph 3 mph 24% 0.00 in 141 W/m2
16:59 80.3 °F 41.4 °F 29.77 in SSW 1.1 mph 3 mph 25.1% 0.00 in 188 W/m2
17:04 80.3 °F 42.3 °F 29.77 in SSE 0.8 mph 3 mph 26% 0.00 in 99 W/m2
17:09 80.1 °F 42 °F 29.77 in NE 0.4 mph 5 mph 25.8% 0.00 in 99 W/m2
17:14 80.1 °F 42 °F 29.77 in NNE 0.1 mph 1 mph 25.8% 0.00 in 63 W/m2
17:19 80.1 °F 40.5 °F 29.76 in South 0.5 mph 3 mph 24.4% 0.00 in 65 W/m2
17:24 80.1 °F 42.3 °F 29.76 in SSW 0.3 mph 2 mph 26.2% 0.00 in 56 W/m2
17:29 79.9 °F 43 °F 29.76 in SSW 0.9 mph 3 mph 27% 0.00 in 55 W/m2
17:34 79.8 °F 42.3 °F 29.76 in SW 0.3 mph 2 mph 26.4% 0.00 in 55 W/m2
17:39 79.8 °F 42.7 °F 29.76 in Calm     26.8% 0.00 in 55 W/m2
17:44 79.8 °F 41.8 °F 29.76 in SSE 0.3 mph 2 mph 25.9% 0.00 in 39 W/m2
17:49 79.6 °F 41.2 °F 29.76 in Calm     25.5% 0.00 in 42 W/m2
17:54 79.4 °F 47.8 °F 29.76 in Calm     33.1% 0.00 in 76 W/m2
17:59 78.9 °F 49.6 °F 29.76 in Calm     35.9% 0.00 in 90 W/m2
18:04 78.5 °F 52.2 °F 29.76 in Calm     39.9% 0.00 in 107 W/m2
18:09 78.2 °F 53.3 °F 29.76 in Calm     42% 0.00 in 113 W/m2
18:14 77.9 °F 55.1 °F 29.76 in Calm     45.4% 0.00 in 104 W/m2
18:19 77.6 °F 54.7 °F 29.76 in Calm   1 mph 45.2% 0.00 in 79 W/m2
18:24 77.3 °F 51.8 °F 29.76 in Calm     41% 0.00 in 83 W/m2
18:29 77.3 °F 51.6 °F 29.76 in Calm     40.7% 0.00 in 86 W/m2
18:34 77.4 °F 55.1 °F 29.76 in Calm     46.2% 0.00 in 86 W/m2
18:39 77.4 °F 57.2 °F 29.76 in Calm     49.7% 0.00 in 90 W/m2
18:44 77.2 °F 58.2 °F 29.76 in Calm     51.9% 0.00 in 90 W/m2
18:49 76.9 °F 58.6 °F 29.76 in Calm     53.1% 0.00 in 83 W/m2
18:54 76.7 °F 59.1 °F 29.76 in Calm     54.6% 0.00 in 97 W/m2
18:59 76.5 °F 59.3 °F 29.76 in Calm     55.3% 0.00 in 91 W/m2
19:04 76.4 °F 59.7 °F 29.76 in Calm     56.3% 0.00 in 86 W/m2
19:09 76.3 °F 59.6 °F 29.76 in Calm     56.2% 0.00 in 84 W/m2
19:14 76.2 °F 60 °F 29.76 in Calm     57.2% 0.00 in 58 W/m2
19:19 76 °F 60 °F 29.75 in Calm     57.8% 0.00 in 35 W/m2
19:24 75.4 °F 60 °F 29.75 in Calm     58.8% 0.00 in 35 W/m2
19:29 74.6 °F 59 °F 29.75 in Calm     58.4% 0.00 in 21 W/m2
19:34 73.9 °F 58.6 °F 29.75 in Calm     59% 0.00 in 18 W/m2
19:39 73.1 °F 58.5 °F 29.75 in Calm     60.1% 0.00 in 16 W/m2
19:44 72.6 °F 58.7 °F 29.75 in Calm     61.8% 0.00 in 16 W/m2
19:49 72 °F 58.7 °F 29.75 in Calm     63% 0.00 in 14 W/m2
19:54 71.4 °F 58.3 °F 29.75 in Calm     63.2% 0.00 in 12 W/m2
19:59 70.7 °F 57.7 °F 29.76 in Calm     63.5% 0.00 in 12 W/m2
20:04 70 °F 57.5 °F 29.76 in Calm     64.5% 0.00 in 12 W/m2
20:09 69.4 °F 57 °F 29.76 in Calm     64.7% 0.00 in 12 W/m2
20:14 68.9 °F 55.8 °F 29.76 in Calm     63.1% 0.00 in 9 W/m2
20:15 68.6 °F 55.7 °F 29.76 in Calm     63.5% 0.00 in 9 W/m2
Lisbon, New Hampshire, USA
Compliments of Weather Underground - 3.75 mb